Paradise, Michigan
Current Conditions -  °F | °C
As of 7:00 AM on Thursday 23 Oct 2014 (Local Time) from CYAM Reporting Station
Clear Clear  
Wind Chill: 30°   Ceiling: Unl
Heat Index: 30°   Visibility: 15mi
Dew Point: 30°   Wind: 3mph
Humidity: 100%   Direction: 70°ENE
Pressure: 30.23"   Gusts: NA
Location:  46.63°N, 85.04°W
Report Text: CYAM 231100Z 07003KT 15SM SKC M01/M01 A3023 RMK SF TR FROIN SLP247
Loading
Personal Weather Stations






























Interactive Weather Map
Tropical Storm Tracking
New forecast layout! Learn more

10-Day Weather Forecast

Advertisements
Track Severe Weather on mobile